Jersey Airport

EGJJ · St Helier, Jersey

2024年7月24日 04:002024年7月24日 13:00有效
时间
星期三
04:00
40%
星期三
05:00
40%
星期三
06:00
40%
星期三
07:00
30%
星期三
08:00
30%
星期三
09:00
30%
星期三
10:00
30%
星期三
11:00
30%
星期三
12:00
30%
代码
LIFR
LIFR
LIFR
IFR
IFR
IFR
IFR
IFR
IFR
天气
的补丁 多雾路段
的补丁 多雾路段
的补丁 多雾路段
几云
几云
几云
几云
几云
几云
能见度
400 m
400 m
400 m
10 km+
10 km+
10 km+
10 km+
10 km+
10 km+
天花板
-
-
-
-
-
-
-
-
-
290°
290°
290°
290°
290°
290°
290°
290°
290°
290°
290°
290°
290°
290°
290°
290°
290°
290°
速度
6 kt
6 kt
6 kt
6 kt
6 kt
6 kt
6 kt
6 kt
6 kt
阵风
温度/星期日
05:31

原版的

TAF EGJJ 240345Z 2403/2412 29006KT 9999 FEW012
PROB40 TEMPO 2403/2406 0400 BCFG BKN002
PROB30 TEMPO 2406/2412 BKN005

TAF Jersey Airport

Jersey Airport是,Jersey中的中型机场。 该机场位于纬度49,20795和经度-2,19531。 该机场有一条跑道: 8/26. 本场的ICAO机场代码为EGJJ。 该机场的IATA代码为JER。 机场在Brest FIR中。

该航空气象观测是针对Jersey Airport在2024年7月24日 04:45, 当地时间进行的。 从2024年7月24日 04:00到2024年7月24日 13:00, 当地时间有效.

预报

  • 在星期三 04:00和13:00之间

    • 风: 风来自290°方向,速度为6 kt。
    • 能见度: 10 km 或者更多
    • 乌云: 几云在1.200 ft的高度.
  • 暂时在星期三 04:00和07:00之间 ({一个机会)

    • 能见度: 400 m
    • 天气: 的补丁 多雾路段
    • 乌云: 碎云在200 ft的高度.
  • 暂时在星期三 07:00和13:00之间 ({一个机会)

    • 乌云: 碎云在500 ft的高度.

白天

今天,太阳从05:31升起,在20:59降落。 这适用于Jersey Airport,世界夏令时可能有所不同。 当地时间与世界标准时间之间的时差为+1 小时。 夏令时目前正在进行中。

报告变更